Latest Coastal Weather Observations for Coolangatta (QLD)

IDN60701

Issued at 6:02 pm EST Wednesday 24 April 2019 (issued every 10 minutes, with the page automatically refreshed every 10 minutes)

About coastal observations | Map of coastal stations | Coastal observations for NSW | Marine services | Other Formats
Station Details ID: 040717 Name: COOLANGATTA Lat: -28.17 Lon: 153.51 Height: 4.0 m
Data from the previous 72 hours. | See also: Recent months at Coolangatta (QLD)
Date/Time
EST
Wind Sea
Height
m
Swell Vis
km
Cloud Weather Temp
°C
Press
hPa
Rain since
9am
mm
Dir  Spd
kts
Gust
kts
Height
m
Period
s
Dir
24/06:00pm S 5 6 - - - - 10 Partly cloudy - 20.3 1021.4 0.0
24/05:30pm S 5 7 - - - - 10 Partly cloudy - 20.8 1021.3 0.0
24/05:00pm SSE 7 9 - - - - 10 Cloudy - 22.0 1021.3 0.0
24/04:30pm SE 9 11 - - - - 10 Partly cloudy - 22.8 1021.1 0.0
24/04:00pm SE 9 14 - - - - 10 Partly cloudy - 23.2 1021.0 0.0
24/03:30pm SE 11 14 - - - - 10 Partly cloudy - 23.6 1021.0 0.0
24/03:00pm ESE 12 15 - - - - 10 Partly cloudy - 24.4 1020.9 0.0
24/02:30pm SE 12 17 - - - - 10 Partly cloudy - 24.5 1020.9 0.0
24/02:00pm SE 13 19 - - - - 10 Partly cloudy - 24.5 1021.0 0.0
24/01:30pm SE 13 19 - - - - 10 Partly cloudy - 25.1 1021.1 0.0
24/01:00pm SE 13 17 - - - - 10 Partly cloudy - 24.9 1021.3 0.0
24/12:30pm SE 13 16 - - - - 10 Partly cloudy - 25.1 1021.7 0.0
24/12:00pm ESE 13 19 - - - - 10 Partly cloudy - 24.5 1022.1 0.0
24/11:30am ESE 13 16 - - - - 10 Partly cloudy - 24.9 1022.3 0.0
24/11:00am ESE 11 15 - - - - 10 Partly cloudy - 24.8 1022.8 0.0
24/10:30am SSE 7 13 - - - - 10 Partly cloudy - 24.0 1023.2 0.0
24/10:00am S 6 8 - - - - 10 Partly cloudy - 23.9 1023.5 0.0
24/09:30am S 6 9 - - - - 10 Partly cloudy - 22.3 1023.5 0.0
24/09:00am S 7 9 - - - - 10 Partly cloudy - 22.0 1023.5 2.0
24/08:30am S 7 9 - - - - 10 Partly cloudy - 21.6 1023.4 2.0
24/08:00am S 7 9 - - - - 10 Partly cloudy - 21.3 1023.3 2.0
24/07:30am S 6 8 - - - - 10 Partly cloudy - 19.9 1023.1 2.0
24/07:00am SSW 4 6 - - - - 10 Partly cloudy - 19.4 1023.0 2.0
24/06:30am SW 5 7 - - - - 10 Partly cloudy - 18.7 1022.6 2.0
24/06:00am SW 4 5 - - - - 10 Mostly cloudy - 18.3 1022.4 2.0
24/05:30am S 6 8 - - - - 10 Partly cloudy - 18.0 1022.1 2.0
24/05:00am SSW 2 5 - - - - 10 Partly cloudy - 18.1 1021.9 2.0
24/04:30am SW 1 4 - - - - 10 Partly cloudy - 18.1 1021.7 2.0
24/04:00am SSW 3 4 - - - - 10 Partly cloudy - 17.9 1021.5 2.0
24/03:30am S 5 6 - - - - 10 Partly cloudy - 18.4 1021.2 2.0
24/03:00am S 5 7 - - - - 10 Partly cloudy - 18.5 1021.5 2.0
24/02:30am S 6 7 - - - - 10 Partly cloudy - 19.3 1021.9 2.0
24/02:00am S 5 8 - - - - 10 Partly cloudy - 19.4 1022.2 2.0
24/01:30am SSW 6 8 - - - - 10 Partly cloudy - 19.6 1022.5 2.0
24/01:00am S 5 7 - - - - 10 - - 19.5 1022.7 2.0
24/12:30am SE 8 10 - - - - 10 Partly cloudy - 21.3 1022.9 2.0
24/12:00am SE 10 14 - - - - 10 Mostly clear - 21.6 1023.1 2.0
 
Date/Time
EST
Wind Sea
Height
m
Swell Vis
km
Cloud Weather Temp
°C
Press
hPa
Rain since
9am
mm
Dir  Spd
kts
Gust
kts
Height
m
Period
s
Dir
23/11:30pm ESE 9 11 - - - - 10 Partly cloudy - 21.8 1023.4 2.0
23/11:00pm ESE 10 14 - - - - 10 Partly cloudy - 21.7 1023.7 2.0
23/10:30pm SE 10 14 - - - - 10 Partly cloudy - 21.7 1023.8 2.0
23/10:00pm SE 11 15 - - - - 10 Partly cloudy - 22.0 1023.8 2.0
23/09:30pm ESE 12 17 - - - - 10 Partly cloudy - 22.0 1024.0 2.0
23/09:00pm ESE 10 14 - - - - 10 Cloudy - 21.6 1023.9 2.0
23/08:30pm SSW 4 5 - - - - 10 Partly cloudy - 19.9 1023.8 2.0
23/08:00pm S 4 5 - - - - 10 Partly cloudy - 20.1 1023.9 2.0
23/07:30pm SSW 5 6 - - - - 10 Partly cloudy - 20.1 1023.9 2.0
23/07:12pm SSW 7 11 - - - - 10 Partly cloudy - 20.1 1023.5 2.0
23/07:00pm SSE 9 18 - - - - 5 Partly cloudy - 20.2 1023.6 1.8
23/06:53pm SSE 10 18 - - - - 6 Partly cloudy - 20.6 1023.6 1.2
23/06:30pm S 6 8 - - - - 10 Partly cloudy - 21.4 1023.3 0.0
23/06:00pm S 3 5 - - - - 10 Cloudy - 21.8 1022.9 0.0
23/05:30pm SSE 5 7 - - - - 10 Partly cloudy - 22.1 1022.8 0.0
23/05:00pm SE 9 13 - - - - 10 Partly cloudy - 23.1 1022.4 0.0
23/04:30pm SE 10 13 - - - - 10 Partly cloudy - 23.5 1022.3 0.0
23/04:00pm SE 11 16 - - - - 10 Partly cloudy - 23.7 1022.3 0.0
23/03:30pm SSE 11 17 - - - - 10 Partly cloudy - 23.8 1022.2 0.0
23/03:00pm SE 11 16 - - - - 10 - - 24.4 1022.2 0.0
23/02:30pm SE 13 17 - - - - 10 Partly cloudy - 24.5 1022.3 0.0
23/02:00pm SE 13 16 - - - - 10 - - 25.2 1022.3 0.0
23/01:30pm SE 13 17 - - - - 10 Partly cloudy - 24.9 1022.4 0.0
23/01:00pm SE 12 15 - - - - 10 Partly cloudy - 25.3 1022.7 0.0
23/12:30pm SE 14 19 - - - - 10 Partly cloudy - 24.8 1022.9 0.0
23/12:00pm ESE 15 19 - - - - 10 Cloudy - 25.1 1023.2 0.0
23/11:30am SE 14 19 - - - - 10 Partly cloudy - 25.0 1023.5 0.0
23/11:00am SE 12 17 - - - - 10 Partly cloudy - 24.4 1023.9 0.0
23/10:30am SE 10 15 - - - - 10 Partly cloudy - 25.4 1024.2 0.0
23/10:00am ESE 10 14 - - - - 10 - - 25.5 1024.5 0.0
23/09:30am SE 14 18 - - - - 10 Partly cloudy - 24.8 1024.5 0.0
23/09:00am SSE 7 11 - - - - 10 Mostly clear - 24.4 1024.5 30.6
23/08:30am SSW 7 9 - - - - 10 Partly cloudy - 22.1 1024.6 30.6
23/08:00am S 7 9 - - - - 10 Partly cloudy - 21.6 1024.6 30.6
23/07:30am S 6 8 - - - - 10 Partly cloudy - 20.4 1024.4 30.6
23/07:00am S 7 9 - - - - 10 Partly cloudy - 20.1 1024.0 30.6
23/06:30am S 6 8 - - - - 10 Partly cloudy - 19.5 1023.8 30.6
23/06:00am S 5 7 - - - - 10 Cloudy - 19.0 1023.3 30.6
23/05:30am S 6 8 - - - - 10 Partly cloudy - 19.2 1022.9 30.6
23/05:00am S 5 7 - - - - 10 Partly cloudy - 18.6 1022.6 30.6
23/04:30am S 6 7 - - - - 10 Partly cloudy - 18.9 1022.5 30.6
23/04:00am S 5 6 - - - - 10 Partly cloudy - 18.7 1022.3 30.6
23/03:30am S 4 5 - - - - 10 Partly cloudy - 18.7 1022.0 30.6
23/03:00am S 6 7 - - - - 10 Mostly cloudy - 19.0 1022.1 30.6
23/02:30am S 4 5 - - - - 10 Partly cloudy - 19.1 1022.2 30.6
23/02:00am SSW 5 8 - - - - 10 Partly cloudy - 19.6 1022.5 30.6
23/01:30am S 6 7 - - - - 10 Partly cloudy - 19.6 1022.7 30.4
23/01:00am S 5 6 - - - - 10 Partly cloudy - 19.4 1022.9 30.4
23/12:30am SSW 3 5 - - - - 10 Partly cloudy - 19.4 1023.1 30.4
23/12:00am SSW 5 7 - - - - 10 Cloudy Rain 19.9 1023.2 30.4
 
Date/Time
EST
Wind Sea
Height
m
Swell Vis
km
Cloud Weather Temp
°C
Press
hPa
Rain since
9am
mm
Dir  Spd
kts
Gust
kts
Height
m
Period
s
Dir
22/11:31pm S 5 8 - - - - 10 Partly cloudy - 20.1 1023.1 30.4
22/11:30pm S 5 8 - - - - 10 Partly cloudy - 20.1 1023.0 30.4
22/11:11pm SSE 7 12 - - - - 5 Partly cloudy - 20.2 1023.2 29.8
22/11:00pm SSW 6 8 - - - - 10 Partly cloudy - 20.2 1023.0 29.4
22/10:30pm S 6 8 - - - - 10 Partly cloudy - 20.2 1023.1 29.4
22/10:00pm S 6 8 - - - - 10 Partly cloudy - 20.3 1023.3 29.4
22/09:30pm SSW 5 7 - - - - 10 Partly cloudy - 20.2 1023.2 29.4
22/09:00pm S 5 7 - - - - 10 Cloudy - 20.2 1023.1 29.4
22/08:30pm S 5 6 - - - - 10 Partly cloudy - 20.3 1022.9 29.4
22/08:00pm S 7 14 - - - - 10 Partly cloudy - 20.8 1022.7 29.4
22/07:30pm WSW 5 7 - - - - 10 Partly cloudy - 20.0 1022.4 29.4
22/07:00pm SE 7 14 - - - - 9 Partly cloudy - 20.4 1022.3 29.2
22/06:54pm SE 10 17 - - - - 7 Partly cloudy - 20.4 1022.1 29.2
22/06:30pm ESE 12 17 - - - - 2 Partly cloudy - 20.1 1022.0 28.0
22/06:00pm SSW 6 8 - - - - 7 Cloudy Showers 19.5 1021.6 14.6
22/05:30pm S 5 8 - - - - 4 Partly cloudy - 20.2 1021.4 6.4
22/05:15pm ESE 5 12 - - - - 5 Partly cloudy - 20.8 1021.5 3.2
22/05:00pm E 6 9 - - - - 10 Partly cloudy - 21.7 1021.1 1.6
22/04:30pm E 11 15 - - - - 10 Partly cloudy - 22.4 1021.0 1.6
22/04:00pm E 12 16 - - - - 10 Partly cloudy - 21.9 1020.8 1.6
22/03:58pm E 12 16 - - - - 10 Partly cloudy - 21.9 1020.8 1.6
22/03:38pm E 12 20 - - - - 6 Partly cloudy - 21.8 1020.7 1.4
22/03:30pm ENE 10 12 - - - - 10 Partly cloudy - 23.3 1020.5 0.8
22/03:00pm SSE 6 9 - - - - 10 Mostly cloudy - 23.3 1020.5 0.8
22/02:30pm ESE 11 17 - - - - 10 Partly cloudy - 23.5 1020.5 0.8
22/02:00pm E 12 16 - - - - 10 Partly cloudy - 24.3 1020.6 0.8
22/01:30pm SE 13 17 - - - - 10 Partly cloudy - 25.1 1020.5 0.8
22/01:00pm ESE 13 19 - - - - 10 Partly cloudy - 24.9 1020.7 0.8
22/12:30pm SE 13 18 - - - - 10 Partly cloudy - 25.1 1020.9 0.8
22/12:00pm SSE 11 17 - - - - 9 Cloudy Showers 22.5 1021.2 0.8
22/11:30am SSE 6 13 - - - - 10 Partly cloudy - 23.9 1021.6 0.2
22/11:00am SSE 8 11 - - - - 10 Partly cloudy - 23.0 1021.9 0.2
22/10:30am S 10 13 - - - - 10 Partly cloudy - 23.5 1022.0 0.2
22/10:00am S 9 13 - - - - 10 Partly cloudy - 22.9 1022.1 0.2
22/09:30am S 8 11 - - - - 10 Partly cloudy - 22.7 1022.3 0.2
22/09:00am S 8 13 - - - - 10 Mostly cloudy Rain 22.1 1022.4 0.0
22/08:30am S 9 13 - - - - 10 Partly cloudy - 21.9 1022.1 0.0
22/08:00am S 9 12 - - - - 10 Partly cloudy - 21.2 1021.9 0.0
22/07:30am S 7 10 - - - - 10 - - 20.9 1021.6 0.0
22/07:00am S 6 8 - - - - 10 - - 20.0 1021.4 0.0
22/06:30am SSW 5 6 - - - - 10 - - 19.1 1021.3 0.0
22/06:00am SSW 5 7 - - - - 10 - - 19.0 1021.0 0.0
22/05:30am S 5 6 - - - - 10 - - 19.1 1020.8 0.0
22/05:00am SSE 5 7 - - - - 10 Partly cloudy - 19.9 1020.5 0.0
22/04:30am S 5 7 - - - - 10 Partly cloudy - 19.8 1020.4 0.0
22/04:00am S 7 9 - - - - 10 Partly cloudy - 20.1 1020.2 0.0
22/03:30am S 6 9 - - - - 10 Partly cloudy - 20.0 1020.2 0.0
22/03:00am S 7 8 - - - - 10 Cloudy - 20.2 1020.3 0.0
22/02:30am S 6 8 - - - - 10 Partly cloudy - 20.0 1020.4 0.0
22/02:00am S 7 9 - - - - 10 Partly cloudy - 19.9 1020.7 0.0
22/01:30am S 5 8 - - - - 10 Partly cloudy - 20.3 1021.2 0.0
22/01:00am S 6 8 - - - - 10 Partly cloudy - 20.2 1021.4 0.0
22/12:30am S 7 10 - - - - 10 Partly cloudy - 20.7 1021.7 0.0
22/12:00am S 6 8 - - - - 10 Cloudy Drizzle 20.5 1021.9 0.0
 
Date/Time
EST
Wind Sea
Height
m
Swell Vis
km
Cloud Weather Temp
°C
Press
hPa
Rain since
9am
mm
Dir  Spd
kts
Gust
kts
Height
m
Period
s
Dir
21/11:30pm S 6 8 - - - - 10 Partly cloudy - 20.5 1021.9 0.0
21/11:00pm S 6 8 - - - - 10 Partly cloudy - 20.2 1022.0 0.0
21/10:30pm S 6 9 - - - - 10 Partly cloudy - 20.7 1022.3 0.0
21/10:00pm S 7 10 - - - - 10 Partly cloudy - 20.6 1022.5 0.0
21/09:30pm SSW 6 8 - - - - 10 Partly cloudy - 20.8 1022.6 0.0
21/09:00pm SSW 6 8 - - - - 10 Cloudy - 21.1 1022.5 0.0
21/08:30pm SSW 5 7 - - - - 10 Partly cloudy - 21.3 1022.4 0.0
21/08:00pm SE 7 11 - - - - 10 Partly cloudy - 21.8 1022.2 0.0
21/07:30pm SE 9 13 - - - - 10 Partly cloudy - 22.2 1022.0 0.0
21/07:00pm SE 9 12 - - - - 10 Partly cloudy - 22.3 1021.7 0.0
21/06:30pm SE 11 14 - - - - 10 Partly cloudy - 22.7 1021.4 0.0

Other formats

Comma delimited format used in spreadsheet applications
http://www.bom.gov.au/fwo/IDN60701/IDN60701.94592.axf

JavaScript Object Notation format (JSON) in row-major order
http://www.bom.gov.au/fwo/IDN60701/IDN60701.94592.json

Data quality

Most of these data are generated automatically and are frequently updated. Quality checks on data are not normally performed. It is possible for incorrect values to appear. Refer to information at About Latest Weather Observations and please check the disclaimer before using these data.